Pottersville, Missouri
Current Conditions -  °F | °C
As of 11:53 PM on Tuesday 21 Oct 2014 (Local Time) from KUNO Reporting Station
Clear Clear  
Wind Chill: 52°   Ceiling: Unl
Heat Index: 52°   Visibility: 10mi
Dew Point: 44°   Wind: 3mph
Humidity: 74%   Direction: 80°E
Pressure: 30.17"   Gusts: NA
Location:  36.7°N, 92.03°W
Report Text: KUNO 220453Z AUTO 08003KT 10SM CLR 11/07 A3017 RMK AO2 SLP212 T01110067
Loading
Personal Weather Stations






























Interactive Weather Map New forecast layout! Learn more

10-Day Weather Forecast

Advertisements
Track Severe Weather on mobile